Time;durP1;ratioP1;P1;durP2;ratioP2;P2;SDS_P1;SDS_P2;PMS_P1;PMS_P2;Temp;Humidity;BMP_temperature;BMP_pressure;BME280_temperature;BME280_humidity;BME280_pressure;Samples;Min_cycle;Max_cycle;Signal;HPM_P1;HPM_P2
2022/04/26 03:40:19;;;;;;;5.30;4.13;;;;;8.70;101051.00;;;;10573021;28;20616;-80
2022/04/26 03:45:21;;;;;;;7.50;4.07;;;;;8.70;101050.00;;;;10535601;28;20184;-79
2022/04/26 03:50:23;;;;;;;5.67;4.00;;;;;8.70;101062.00;;;;10528739;28;20246;-80
2022/04/26 03:55:25;;;;;;;5.57;4.07;;;;;8.60;101062.00;;;;10497040;28;20196;-79
2022/04/26 04:00:27;;;;;;;6.37;3.80;;;;;8.60;101064.00;;;;10523175;28;20211;-80
2022/04/26 04:05:30;;;;;;;7.20;4.33;;;;;8.60;101074.00;;;;10521978;28;20196;-80
2022/04/26 04:10:31;;;;;;;5.93;4.50;;;;;8.60;101072.00;;;;10496366;28;20193;-80
2022/04/26 04:15:33;;;;;;;5.47;3.90;;;;;8.60;101078.00;;;;10515560;28;20545;-80
2022/04/26 04:20:36;;;;;;;5.80;4.10;;;;;8.60;101076.00;;;;10497830;28;20278;-81
2022/04/26 04:25:38;;;;;;;7.63;4.17;;;;;8.70;101082.00;;;;10497756;28;20709;-80
2022/04/26 04:30:41;;;;;;;7.90;4.97;;;;;8.70;101087.00;;;;10541542;28;20192;-80
2022/04/26 04:35:43;;;;;;;7.33;4.27;;;;;8.60;101093.00;;;;10554742;28;20188;-80
2022/04/26 04:40:45;;;;;;;6.53;4.03;;;;;8.60;101106.00;;;;10529243;28;20270;-80
2022/04/26 04:45:47;;;;;;;6.97;4.30;;;;;8.50;101105.00;;;;10494276;28;20681;-80
2022/04/26 04:50:49;;;;;;;8.97;4.60;;;;;8.50;101120.00;;;;10495589;28;20207;-80
2022/04/26 04:55:51;;;;;;;9.77;4.30;;;;;8.50;101121.00;;;;10496218;28;20279;-80
2022/04/26 05:00:53;;;;;;;5.60;4.53;;;;;8.50;101133.00;;;;10508530;28;20208;-80
2022/04/26 05:05:55;;;;;;;5.63;4.80;;;;;8.40;101135.00;;;;10529424;28;20265;-80
2022/04/26 05:10:57;;;;;;;7.50;5.40;;;;;8.20;101147.00;;;;10508247;28;20192;-80
2022/04/26 05:16:00;;;;;;;7.40;4.97;;;;;8.20;101147.00;;;;10573158;27;20187;-80
2022/04/26 05:21:06;;;;;;;11.40;5.30;;;;;8.20;101165.00;;;;10579095;27;20265;-80
2022/04/26 05:26:08;;;;;;;8.50;5.07;;;;;8.30;101165.00;;;;10579316;27;20195;-80
2022/04/26 05:31:10;;;;;;;7.10;5.07;;;;;8.30;101174.00;;;;10561871;27;20188;-81
2022/04/26 05:36:12;;;;;;;6.97;5.07;;;;;8.30;101168.00;;;;10561656;27;20286;-79
2022/04/26 05:41:14;;;;;;;9.23;5.23;;;;;8.40;101176.00;;;;10559880;28;20224;-79
2022/04/26 05:46:16;;;;;;;9.63;5.07;;;;;8.50;101175.00;;;;10539500;28;20196;-80
2022/04/26 05:51:18;;;;;;;9.00;5.30;;;;;8.60;101175.00;;;;10574006;28;20188;-80
2022/04/26 05:56:20;;;;;;;7.20;5.17;;;;;8.70;101178.00;;;;10533424;28;20295;-80
2022/04/26 06:01:22;;;;;;;5.73;4.67;;;;;8.80;101177.00;;;;10498193;28;20239;-80
2022/04/26 06:06:25;;;;;;;10.13;5.77;;;;;8.90;101190.00;;;;10557670;28;20204;-81
2022/04/26 06:11:27;;;;;;;6.97;5.30;;;;;9.10;101187.00;;;;10537918;28;20188;-81
2022/04/26 06:16:29;;;;;;;6.03;5.03;;;;;9.20;101197.00;;;;10520474;28;20321;-81
2022/04/26 06:21:31;;;;;;;7.90;5.17;;;;;9.20;101200.00;;;;10539052;28;20219;-82
2022/04/26 06:26:33;;;;;;;6.07;4.97;;;;;9.20;101203.00;;;;10552743;28;20196;-81
2022/04/26 06:31:34;;;;;;;7.40;5.30;;;;;9.50;101216.00;;;;10539625;28;20192;-82
2022/04/26 06:36:36;;;;;;;7.37;5.47;;;;;9.80;101217.00;;;;10477587;28;20630;-81
2022/04/26 06:41:39;;;;;;;6.93;5.07;;;;;10.10;101217.00;;;;10518036;28;20303;-82
2022/04/26 06:46:40;;;;;;;7.37;5.00;;;;;10.50;101226.00;;;;10530813;28;20203;-81
2022/04/26 06:51:44;;;;;;;5.73;4.47;;;;;10.70;101239.00;;;;10538570;28;20263;-81
2022/04/26 06:56:46;;;;;;;6.70;4.57;;;;;10.60;101236.00;;;;10538733;28;20188;-81
2022/04/26 07:01:54;;;;;;;8.50;4.13;;;;;10.60;101250.00;;;;10518548;28;20200;-82
2022/04/26 07:06:56;;;;;;;4.67;4.17;;;;;10.70;101255.00;;;;10517440;28;20212;-82
2022/04/26 07:11:58;;;;;;;7.17;4.43;;;;;10.90;101254.00;;;;10515900;28;20604;-78
2022/04/26 07:17:02;;;;;;;7.33;4.37;;;;;11.30;101259.00;;;;10548344;28;20279;-82
2022/04/26 07:22:04;;;;;;;6.57;4.20;;;;;11.90;101268.00;;;;10518056;28;20259;-82
2022/04/26 07:27:06;;;;;;;9.17;4.33;;;;;12.40;101270.00;;;;10533052;28;20632;-80
2022/04/26 07:34:20;;;;;;;6.73;4.20;;;;;12.70;101278.00;;;;10524100;28;20196;-81
2022/04/26 07:37:52;;;;;;;6.63;3.77;;;;;12.70;101271.00;;;;10538527;28;20199;-82
2022/04/26 07:42:55;;;;;;;5.37;4.30;;;;;12.90;101285.00;;;;10522098;28;20208;-82
2022/04/26 07:47:58;;;;;;;5.43;4.13;;;;;12.90;101294.00;;;;10556474;28;20671;-82
2022/04/26 07:53:01;;;;;;;6.10;4.20;;;;;13.10;101288.00;;;;10524950;28;20188;-82
2022/04/26 07:58:03;;;;;;;7.03;4.43;;;;;13.20;101292.00;;;;10573945;28;20200;-82
2022/04/26 08:03:05;;;;;;;7.53;4.30;;;;;13.60;101289.00;;;;10540398;28;20188;-81
2022/04/26 08:08:07;;;;;;;7.30;4.77;;;;;13.30;101297.00;;;;10541416;28;20192;-83
2022/04/26 08:13:09;;;;;;;6.30;4.33;;;;;13.10;101306.00;;;;10522177;28;20195;-81
2022/04/26 08:18:11;;;;;;;8.57;4.33;;;;;13.50;101306.00;;;;10522385;28;20258;-82
2022/04/26 08:23:13;;;;;;;5.80;4.30;;;;;14.70;101305.00;;;;10520740;28;20566;-81
2022/04/26 08:28:15;;;;;;;5.23;4.00;;;;;16.70;101308.00;;;;10520462;28;20242;-80
2022/04/26 08:33:17;;;;;;;4.60;4.10;;;;;17.30;101319.00;;;;10516773;28;20209;-80
2022/04/26 08:38:19;;;;;;;7.57;3.63;;;;;16.20;101333.00;;;;10513776;28;20219;-82
2022/04/26 08:43:21;;;;;;;5.93;4.20;;;;;15.20;101337.00;;;;10537900;28;20212;-81
2022/04/26 08:53:44;;;;;;;7.67;4.73;;;;;15.30;101343.00;;;;10537099;28;20199;-81
2022/04/26 08:58:46;;;;;;;4.57;4.13;;;;;16.20;101348.00;;;;10520117;28;20208;-83
2022/04/26 09:03:54;;;;;;;5.27;4.17;;;;;17.00;101355.00;;;;10511551;28;20197;-82
2022/04/26 09:09:11;;;;;;;4.63;3.80;;;;;18.50;101348.00;;;;10496261;28;20280;-80
2022/04/26 09:14:38;;;;;;;7.20;4.95;;;;;18.80;101361.00;;;;10531901;28;20199;-80
2022/04/26 09:19:46;;;;;;;6.50;4.10;;;;;19.10;101349.00;;;;10498344;28;20614;-80
2022/04/26 09:25:06;;;;;;;6.30;3.90;;;;;19.20;101361.00;;;;10518151;28;20258;-79
2022/04/26 09:30:13;;;;;;;7.85;4.03;;;;;19.20;101360.00;;;;10495453;27;20278;-80
2022/04/26 09:35:20;;;;;;;7.60;4.22;;;;;19.10;101375.00;;;;10503495;28;20715;-80
2022/04/26 09:40:27;;;;;;;7.75;3.92;;;;;19.00;101375.00;;;;10506662;28;20224;-78
2022/04/26 09:45:29;;;;;;;8.00;4.28;;;;;18.60;101379.00;;;;10533984;28;20199;-80
2022/04/26 09:50:31;;;;;;;4.85;3.95;;;;;19.00;101381.00;;;;10553903;28;20222;-80
2022/04/26 09:55:33;;;;;;;5.82;4.25;;;;;19.90;101383.00;;;;10550045;28;20196;-81
2022/04/26 10:00:38;;;;;;;8.35;4.55;;;;;19.40;101373.00;;;;10552588;28;20234;-79
2022/04/26 10:05:42;;;;;;;7.43;4.65;;;;;18.80;101378.00;;;;10571604;28;20210;-79
2022/04/26 10:10:44;;;;;;;6.50;3.90;;;;;19.90;101381.00;;;;10580974;28;20212;-81
2022/04/26 10:15:47;;;;;;;8.07;4.93;;;;;20.40;101380.00;;;;10567710;28;20215;-80
2022/04/26 10:20:49;;;;;;;4.78;3.75;;;;;21.00;101393.00;;;;10543096;28;20219;-80
2022/04/26 10:26:11;;;;;;;6.22;4.30;;;;;20.70;101396.00;;;;10556772;28;20230;-79
2022/04/26 10:31:13;;;;;;;7.68;4.00;;;;;21.10;101388.00;;;;10525591;28;20247;-80
2022/04/26 10:36:31;;;;;;;6.03;4.40;;;;;21.10;101384.00;;;;10519881;28;20215;-80
2022/04/26 10:41:46;;;;;;;5.70;4.13;;;;;22.30;101381.00;;;;10532561;28;20311;-80
2022/04/26 10:47:08;;;;;;;5.88;4.30;;;;;23.00;101401.00;;;;10517195;28;20249;-80
2022/04/26 10:52:13;;;;;;;6.55;4.20;;;;;20.80;101396.00;;;;10568513;28;20191;-80
2022/04/26 10:57:17;;;;;;;6.53;3.60;;;;;19.70;101412.00;;;;10547166;28;20192;-80
2022/04/26 11:02:21;;;;;;;11.63;3.97;;;;;19.70;101417.00;;;;10554736;28;20212;-79
2022/04/26 11:07:26;;;;;;;8.73;4.80;;;;;20.10;101415.00;;;;10558167;28;20196;-80
2022/04/26 11:12:30;;;;;;;6.93;3.63;;;;;19.90;101407.00;;;;10557963;28;20192;-80
2022/04/26 11:17:32;;;;;;;6.88;4.03;;;;;20.30;101410.00;;;;10558338;28;20264;-80
2022/04/26 11:22:46;;;;;;;4.95;3.60;;;;;21.50;101415.00;;;;10578468;28;20211;-80
2022/04/26 11:28:00;;;;;;;4.18;3.00;;;;;21.30;101404.00;;;;10583375;28;20196;-80
2022/04/26 11:33:06;;;;;;;5.15;2.90;;;;;19.80;101423.00;;;;10542326;28;20317;-81
2022/04/26 11:38:12;;;;;;;5.93;3.00;;;;;19.30;101416.00;;;;10554148;28;20563;-80
2022/04/26 11:43:22;;;;;;;10.52;3.03;;;;;20.10;101417.00;;;;10556675;28;20212;-80
2022/04/26 11:48:36;;;;;;;3.60;2.72;;;;;20.20;101408.00;;;;10573349;28;20295;-79
2022/04/26 11:53:40;;;;;;;4.60;3.15;;;;;20.30;101418.00;;;;10555767;28;20188;-80
2022/04/26 11:58:42;;;;;;;5.10;3.78;;;;;19.90;101429.00;;;;10553345;28;20212;-80
2022/04/26 12:03:49;;;;;;;4.85;3.40;;;;;20.10;101426.00;;;;10518788;28;20189;-81
2022/04/26 12:09:01;;;;;;;4.47;3.25;;;;;22.30;101431.00;;;;10521581;28;20219;-79
2022/04/26 12:14:17;;;;;;;5.55;3.30;;;;;22.20;101423.00;;;;10540791;28;20219;-81
2022/04/26 12:19:19;;;;;;;5.72;3.40;;;;;20.00;101450.00;;;;10543739;28;20216;-81
2022/04/26 12:24:25;;;;;;;5.55;3.65;;;;;20.20;101437.00;;;;10531383;28;20200;-80
2022/04/26 12:29:40;;;;;;;7.05;4.35;;;;;21.70;101427.00;;;;10509237;27;20185;-81
2022/04/26 12:34:52;;;;;;;4.97;3.72;;;;;20.80;101441.00;;;;10558282;28;20267;-81
2022/04/26 12:39:58;;;;;;;6.05;4.10;;;;;20.60;101448.00;;;;10574130;28;20220;-81
2022/04/26 12:45:03;;;;;;;5.90;3.80;;;;;19.50;101445.00;;;;10534526;28;20192;-82
2022/04/26 12:50:38;;;;;;;7.55;4.05;;;;;19.60;101438.00;;;;10572042;28;20195;-80
2022/04/26 12:55:41;;;;;;;5.95;4.45;;;;;20.30;101445.00;;;;10539767;28;20229;-81
2022/04/26 13:00:47;;;;;;;7.93;4.63;;;;;21.20;101432.00;;;;10561625;28;20234;-81
2022/04/26 13:05:51;;;;;;;7.53;5.47;;;;;22.30;101440.00;;;;10534854;28;20206;-81
2022/04/26 13:10:54;;;;;;;6.15;4.78;;;;;21.90;101436.00;;;;10538585;28;20223;-81
2022/04/26 13:15:57;;;;;;;9.10;5.60;;;;;22.90;101447.00;;;;10538040;28;20278;-80
2022/04/26 13:21:00;;;;;;;8.77;5.40;;;;;23.80;101455.00;;;;10555935;28;20568;-81
2022/04/26 13:26:02;;;;;;;4.70;3.67;;;;;23.20;101443.00;;;;10553475;28;20200;-81
2022/04/26 13:31:04;;;;;;;4.18;3.70;;;;;22.70;101443.00;;;;10539284;28;20224;-80
2022/04/26 13:36:07;;;;;;;6.57;3.15;;;;;20.50;101442.00;;;;10510712;28;20660;-80
2022/04/26 13:41:11;;;;;;;5.13;3.22;;;;;20.70;101439.00;;;;10541670;28;20225;-81
2022/04/26 13:46:13;;;;;;;4.93;3.10;;;;;22.40;101436.00;;;;10511672;28;20197;-80
2022/04/26 13:51:16;;;;;;;4.47;3.58;;;;;22.00;101431.00;;;;10520614;28;20232;-81
2022/04/26 13:56:18;;;;;;;6.40;3.80;;;;;21.70;101443.00;;;;10555231;28;20253;-80
2022/04/26 14:01:23;;;;;;;4.85;3.47;;;;;21.30;101431.00;;;;10560523;28;20212;-78
2022/04/26 14:06:25;;;;;;;5.40;4.13;;;;;21.30;101433.00;;;;10514464;28;20228;-79
2022/04/26 14:11:26;;;;;;;6.55;4.15;;;;;21.40;101433.00;;;;10526697;28;20196;-80
2022/04/26 14:21:50;;;;;;;5.68;2.92;;;;;24.70;101394.00;;;;10518260;28;20199;-81
2022/04/26 14:26:53;;;;;;;8.65;4.07;;;;;22.50;101433.00;;;;10532500;28;20195;-80
2022/04/26 14:31:55;;;;;;;5.70;3.83;;;;;21.30;101441.00;;;;10520767;28;20265;-79
2022/04/26 14:36:58;;;;;;;5.00;3.97;;;;;21.80;101434.00;;;;10535240;28;20219;-79
2022/04/26 14:42:00;;;;;;;10.25;3.72;;;;;20.70;101442.00;;;;10518853;28;20271;-80
2022/04/26 14:47:03;;;;;;;6.30;4.05;;;;;20.80;101442.00;;;;10548876;28;162278;-81
2022/04/26 14:52:06;;;;;;;8.98;4.63;;;;;20.20;101432.00;;;;10533680;28;20263;-80
2022/04/26 14:57:28;;;;;;;8.75;4.68;;;;;21.60;101429.00;;;;10541315;28;20184;-79
2022/04/26 15:02:38;;;;;;;5.10;4.40;;;;;22.70;101442.00;;;;10528183;28;20201;-79
2022/04/26 15:18:22;;;;;;;8.82;4.15;;;;;19.90;101440.00;;;;10542076;28;20200;-80
2022/04/26 15:23:24;;;;;;;6.05;4.05;;;;;21.40;101433.00;;;;10503732;28;20207;-79
2022/04/26 15:28:26;;;;;;;5.20;3.83;;;;;20.30;101441.00;;;;10539024;28;20246;-79
2022/04/26 15:33:28;;;;;;;10.05;4.45;;;;;19.80;101440.00;;;;10519389;28;20228;-79
2022/04/26 15:38:30;;;;;;;7.32;4.50;;;;;19.40;101436.00;;;;10539680;28;20204;-79
2022/04/26 15:43:37;;;;;;;5.43;4.28;;;;;19.30;101445.00;;;;10527081;28;20209;-79
2022/04/26 15:48:55;;;;;;;8.63;4.60;;;;;19.40;101446.00;;;;10535527;28;20644;-78
2022/04/26 15:53:57;;;;;;;7.20;4.50;;;;;19.50;101459.00;;;;10527865;28;20631;-78
2022/04/26 15:59:00;;;;;;;7.25;4.57;;;;;18.70;101457.00;;;;10531041;28;20204;-79
2022/04/26 16:04:12;;;;;;;6.22;4.85;;;;;18.30;101452.00;;;;10517574;28;20192;-79
2022/04/26 16:25:18;;;;;;;6.55;4.43;;;;;17.70;101451.00;;;;10560609;27;20654;-80
2022/04/26 16:30:20;;;;;;;6.25;4.55;;;;;17.80;101456.00;;;;10560919;27;20703;-80
2022/04/26 16:35:24;;;;;;;8.05;4.38;;;;;17.80;101471.00;;;;10519684;27;20230;-80
2022/04/26 16:40:28;;;;;;;5.70;4.53;;;;;17.40;101471.00;;;;10550976;28;20270;-80
2022/04/26 16:45:30;;;;;;;7.85;4.55;;;;;17.30;101473.00;;;;10531374;28;20203;-79
2022/04/26 16:50:34;;;;;;;6.00;4.25;;;;;17.10;101470.00;;;;10547969;27;20269;-79
2022/04/26 16:55:36;;;;;;;8.93;4.40;;;;;17.40;101481.00;;;;10551776;27;20200;-80
2022/04/26 17:00:41;;;;;;;6.13;4.20;;;;;17.30;101479.00;;;;10532983;27;20574;-80
2022/04/26 17:05:47;;;;;;;6.93;4.43;;;;;17.20;101481.00;;;;10492441;28;20195;-80
2022/04/26 17:10:51;;;;;;;8.15;4.60;;;;;17.10;101485.00;;;;10546479;28;20644;-80
2022/04/26 17:15:52;;;;;;;10.50;4.90;;;;;16.80;101493.00;;;;10539937;27;20189;-80
2022/04/26 17:20:54;;;;;;;9.57;4.63;;;;;16.30;101501.00;;;;10536047;27;20196;-81
2022/04/26 17:25:57;;;;;;;6.53;4.47;;;;;15.70;101502.00;;;;10554311;28;20204;-80
2022/04/26 17:30:59;;;;;;;8.77;4.67;;;;;15.30;101511.00;;;;10539296;27;20190;-81
2022/04/26 17:36:01;;;;;;;10.30;5.47;;;;;15.10;101509.00;;;;10512243;27;20216;-81
2022/04/26 17:41:04;;;;;;;6.20;4.63;;;;;15.00;101518.00;;;;10515162;28;20475;-81
2022/04/26 17:46:11;;;;;;;5.43;4.20;;;;;14.80;101528.00;;;;10541528;28;20266;-80
2022/04/26 17:51:14;;;;;;;6.13;4.17;;;;;14.40;101529.00;;;;10513427;27;20222;-81
2022/04/26 17:56:28;;;;;;;5.90;3.77;;;;;14.30;101533.00;;;;10505800;28;20249;-80
2022/04/26 18:01:30;;;;;;;6.20;3.80;;;;;14.00;101540.00;;;;10537140;28;20243;-80
2022/04/26 18:06:32;;;;;;;5.07;4.30;;;;;13.60;101545.00;;;;10523215;28;20231;-80
2022/04/26 18:11:34;;;;;;;8.50;4.27;;;;;13.40;101554.00;;;;10522754;28;20204;-80
2022/04/26 18:16:37;;;;;;;7.57;4.37;;;;;13.20;101565.00;;;;10546057;28;20242;-80
2022/04/26 18:21:39;;;;;;;7.33;4.23;;;;;13.10;101573.00;;;;10502359;28;20251;-80
2022/04/26 18:26:42;;;;;;;6.37;3.70;;;;;12.90;101583.00;;;;10530022;28;20192;-80
2022/04/26 18:31:46;;;;;;;8.93;4.70;;;;;12.60;101583.00;;;;10546002;27;20543;-80
2022/04/26 18:36:50;;;;;;;7.90;4.40;;;;;12.30;101586.00;;;;10525786;28;20193;-81
2022/04/26 18:41:56;;;;;;;7.17;4.27;;;;;12.00;101597.00;;;;10499883;28;20224;-79
2022/04/26 18:47:02;;;;;;;4.97;4.17;;;;;11.70;101609.00;;;;10511285;28;20196;-79
2022/04/26 18:52:06;;;;;;;6.83;4.80;;;;;11.40;101629.00;;;;10489506;28;20180;-79
2022/04/26 18:57:09;;;;;;;7.50;5.07;;;;;11.10;101632.00;;;;10553092;28;20185;-81
2022/04/26 19:02:11;;;;;;;5.87;4.87;;;;;10.90;101645.00;;;;10523216;28;20686;-79
2022/04/26 19:07:14;;;;;;;7.70;4.87;;;;;10.70;101651.00;;;;10548948;28;20749;-81
2022/04/26 19:12:16;;;;;;;6.63;5.10;;;;;10.50;101662.00;;;;10528567;28;20639;-80
2022/04/26 19:17:20;;;;;;;8.77;4.90;;;;;10.30;101662.00;;;;10520318;28;20196;-81
2022/04/26 19:22:25;;;;;;;9.07;4.93;;;;;10.10;101674.00;;;;10546744;28;20729;-82
2022/04/26 19:27:28;;;;;;;7.03;4.80;;;;;10.00;101683.00;;;;10527070;28;20176;-81
2022/04/26 19:32:30;;;;;;;8.27;5.23;;;;;9.90;101690.00;;;;10546614;28;20635;-81
2022/04/26 19:37:32;;;;;;;9.57;5.30;;;;;9.80;101700.00;;;;10526810;28;20216;-80
2022/04/26 19:42:34;;;;;;;8.30;6.40;;;;;9.60;101700.00;;;;10545961;28;20215;-81
2022/04/26 19:47:36;;;;;;;9.27;5.40;;;;;9.50;101702.00;;;;10526426;28;20196;-81
2022/04/26 19:52:38;;;;;;;6.20;5.60;;;;;9.40;101710.00;;;;10527839;28;20723;-81
2022/04/26 19:57:42;;;;;;;6.60;5.37;;;;;9.30;101712.00;;;;10540376;28;20201;-82
2022/04/26 20:02:44;;;;;;;7.23;5.60;;;;;9.30;101729.00;;;;10554858;28;20559;-81
2022/04/26 20:07:46;;;;;;;10.27;4.93;;;;;9.20;101716.00;;;;10562294;27;20196;-82
2022/04/26 20:12:48;;;;;;;7.23;5.30;;;;;9.10;101716.00;;;;10517601;28;20736;-81
2022/04/26 20:17:52;;;;;;;11.87;5.53;;;;;9.10;101711.00;;;;10504634;28;20236;-81
2022/04/26 20:22:54;;;;;;;6.40;5.27;;;;;9.10;101704.00;;;;10519176;28;20597;-82
2022/04/26 20:33:17;;;;;;;8.07;5.53;;;;;8.90;101715.00;;;;10503823;28;20211;-81
2022/04/26 20:38:19;;;;;;;6.10;5.03;;;;;8.90;101719.00;;;;10512552;28;20220;-81
2022/04/26 20:43:20;;;;;;;6.87;5.03;;;;;8.80;101728.00;;;;10533316;28;20266;-81
2022/04/26 20:48:24;;;;;;;8.70;5.33;;;;;8.80;101730.00;;;;10525249;28;20201;-81
2022/04/26 20:53:26;;;;;;;9.23;5.50;;;;;8.70;101722.00;;;;10525097;28;20188;-82
2022/04/26 20:58:28;;;;;;;7.87;5.60;;;;;8.60;101739.00;;;;10566734;27;20565;-81
2022/04/26 21:03:30;;;;;;;8.03;5.63;;;;;8.40;101738.00;;;;10534471;28;20273;-82
2022/04/26 21:08:34;;;;;;;9.60;5.80;;;;;8.30;101741.00;;;;10512605;28;20192;-82
2022/04/26 21:13:36;;;;;;;8.57;6.03;;;;;8.10;101748.00;;;;10517244;28;20200;-82
2022/04/26 21:18:39;;;;;;;9.30;6.40;;;;;8.00;101742.00;;;;10493010;28;20193;-81
2022/04/26 21:23:41;;;;;;;9.97;6.70;;;;;7.80;101754.00;;;;10517900;27;20738;-81
2022/04/26 21:28:44;;;;;;;10.10;6.67;;;;;7.70;101749.00;;;;10512950;28;20643;-81
2022/04/26 21:33:46;;;;;;;9.60;6.53;;;;;7.60;101754.00;;;;10498268;28;20189;-83
2022/04/26 21:38:49;;;;;;;8.77;6.37;;;;;7.40;101760.00;;;;10511895;28;20184;-80
2022/04/26 21:43:51;;;;;;;11.87;6.97;;;;;7.30;101763.00;;;;10486449;28;20213;-79
2022/04/26 21:48:53;;;;;;;11.97;6.40;;;;;7.30;101767.00;;;;10508684;28;20642;-80
2022/04/26 21:53:55;;;;;;;13.50;7.30;;;;;7.20;101761.00;;;;10516458;28;20193;-79
2022/04/26 21:58:58;;;;;;;8.07;6.63;;;;;7.20;101759.00;;;;10512359;28;20243;-80
2022/04/26 22:04:00;;;;;;;13.87;7.20;;;;;7.30;101776.00;;;;10518279;28;20215;-80
2022/04/26 22:09:02;;;;;;;12.77;7.40;;;;;7.30;101770.00;;;;10532306;27;20185;-79
2022/04/26 22:14:05;;;;;;;10.73;6.60;;;;;7.40;101782.00;;;;10491312;28;20224;-80
2022/04/26 22:19:07;;;;;;;13.63;6.60;;;;;7.40;101788.00;;;;10499362;28;20192;-80
2022/04/26 22:24:09;;;;;;;9.67;5.90;;;;;7.40;101794.00;;;;10522831;28;20205;-81
2022/04/26 22:29:10;;;;;;;10.37;6.60;;;;;7.30;101791.00;;;;10475355;28;20197;-80
2022/04/26 22:34:12;;;;;;;8.77;6.67;;;;;7.30;101795.00;;;;10498947;28;20181;-79
2022/04/26 22:39:14;;;;;;;12.70;6.50;;;;;7.20;101803.00;;;;10528105;28;20211;-79
2022/04/26 22:44:16;;;;;;;14.73;6.97;;;;;7.20;101802.00;;;;10535012;28;20778;-79
2022/04/26 22:49:18;;;;;;;9.37;6.43;;;;;7.10;101808.00;;;;10538784;28;20651;-80
2022/04/26 22:54:20;;;;;;;13.00;6.73;;;;;6.90;101819.00;;;;10476897;28;20185;-80
2022/04/26 22:59:22;;;;;;;10.37;6.10;;;;;6.80;101816.00;;;;10546411;28;20208;-80
2022/04/26 23:04:25;;;;;;;9.33;6.63;;;;;6.70;101822.00;;;;10554898;28;20210;-81
2022/04/26 23:09:28;;;;;;;7.93;6.10;;;;;6.50;101830.00;;;;10522687;28;20238;-80
2022/04/26 23:14:30;;;;;;;9.60;6.40;;;;;6.40;101835.00;;;;10518302;28;20196;-80
2022/04/26 23:19:33;;;;;;;12.17;7.13;;;;;6.20;101840.00;;;;10537276;28;20192;-80
2022/04/26 23:24:35;;;;;;;8.77;6.30;;;;;6.10;101843.00;;;;10515477;28;20220;-80
2022/04/26 23:29:38;;;;;;;15.63;6.97;;;;;6.10;101847.00;;;;10497544;27;20224;-80
2022/04/26 23:40:00;;;;;;;11.00;6.93;;;;;5.90;101853.00;;;;10553205;28;20262;-81
2022/04/26 23:45:05;;;;;;;11.27;6.43;;;;;5.80;101857.00;;;;10534726;28;20196;-80
2022/04/26 23:52:53;;;;;;;9.40;6.67;;;;;5.70;101855.00;;;;10527360;28;20193;-80
2022/04/26 23:55:29;;;;;;;12.27;7.77;;;;;5.70;101852.00;;;;10518749;28;20271;-80
